createdAt,value
2022-09-30T00:01:57.131Z,100.00
2022-09-30T00:04:27.064Z,100.00
2022-09-30T00:06:56.336Z,100.00
2022-09-30T00:09:24.965Z,100.00
2022-09-30T00:11:54.968Z,100.00
2022-09-30T00:14:24.910Z,100.00
2022-09-30T00:16:53.266Z,100.00
2022-09-30T00:19:21.912Z,100.00
2022-09-30T00:21:50.179Z,100.00
2022-09-30T00:24:18.545Z,100.00
2022-09-30T00:26:47.184Z,100.00
2022-09-30T00:29:18.468Z,100.00
2022-09-30T00:31:47.350Z,100.00
2022-09-30T00:34:17.384Z,100.00
2022-09-30T00:36:49.707Z,100.00
2022-09-30T00:39:22.071Z,100.00
2022-09-30T00:41:54.128Z,100.00
2022-09-30T00:44:54.787Z,100.00
2022-09-30T00:47:50.755Z,100.00
2022-09-30T00:50:36.194Z,100.00
2022-09-30T00:53:15.432Z,100.00
2022-09-30T00:55:55.868Z,100.00
2022-09-30T00:58:31.508Z,100.00
2022-09-30T01:01:02.794Z,100.00
2022-09-30T01:03:34.049Z,100.00
2022-09-30T01:06:03.020Z,100.00
2022-09-30T01:08:34.446Z,100.00
2022-09-30T01:11:07.887Z,100.00
2022-09-30T01:13:38.187Z,100.00
2022-09-30T01:16:48.974Z,100.00
2022-09-30T01:19:47.891Z,100.00
2022-09-30T01:22:33.852Z,100.00
2022-09-30T01:26:02.420Z,100.00
2022-09-30T01:29:16.550Z,100.00
2022-09-30T01:31:58.400Z,100.00
2022-09-30T01:34:42.855Z,100.00
2022-09-30T01:37:25.757Z,100.00
2022-09-30T01:40:01.508Z,100.00
2022-09-30T01:42:39.008Z,100.00
2022-09-30T01:45:15.777Z,100.00
2022-09-30T01:47:52.121Z,100.00
2022-09-30T01:50:28.053Z,100.00
2022-09-30T01:53:06.480Z,100.00
2022-09-30T01:55:42.124Z,100.00
2022-09-30T01:58:17.993Z,100.00
2022-09-30T02:00:50.332Z,100.00
2022-09-30T02:03:27.672Z,100.00
2022-09-30T02:06:03.370Z,100.00
2022-09-30T02:08:41.702Z,100.00
2022-09-30T02:11:15.600Z,100.00
2022-09-30T02:13:51.121Z,100.00
2022-09-30T02:16:27.561Z,100.00
2022-09-30T02:19:04.637Z,100.00
2022-09-30T02:21:39.070Z,100.00
2022-09-30T02:24:14.002Z,100.00
2022-09-30T02:26:45.184Z,100.00
2022-09-30T02:29:19.809Z,100.00
2022-09-30T02:31:54.487Z,100.00
2022-09-30T02:34:30.177Z,100.00
2022-09-30T02:37:06.476Z,100.00
2022-09-30T02:39:43.118Z,100.00
2022-09-30T02:42:20.229Z,100.00
2022-09-30T02:44:50.880Z,100.00
2022-09-30T02:47:30.361Z,100.00
2022-09-30T02:50:07.643Z,100.00
2022-09-30T02:52:49.332Z,100.00
2022-09-30T02:55:28.414Z,100.00
2022-09-30T02:58:05.671Z,100.00
2022-09-30T03:00:34.263Z,100.00
2022-09-30T03:03:12.741Z,100.00
2022-09-30T03:05:42.750Z,100.00
2022-09-30T03:08:11.953Z,100.00
2022-09-30T03:10:41.176Z,100.00
2022-09-30T03:13:34.693Z,100.00
2022-09-30T03:16:16.975Z,100.00
2022-09-30T03:19:07.996Z,100.00
2022-09-30T03:21:55.439Z,100.00
2022-09-30T03:24:43.878Z,100.00
2022-09-30T03:27:23.897Z,100.00
2022-09-30T03:30:04.094Z,100.00
2022-09-30T03:32:50.315Z,100.00
2022-09-30T03:35:29.471Z,100.00
2022-09-30T03:38:08.365Z,100.00
2022-09-30T03:40:55.078Z,100.00
2022-09-30T03:43:33.704Z,100.00
2022-09-30T03:46:11.093Z,100.00
2022-09-30T03:48:42.240Z,100.00
2022-09-30T03:51:11.048Z,100.00
2022-09-30T03:53:42.681Z,100.00
2022-09-30T03:56:10.967Z,100.00
2022-09-30T03:58:45.352Z,100.00
2022-09-30T04:01:21.488Z,100.00
2022-09-30T04:03:51.909Z,100.00
2022-09-30T04:06:22.400Z,100.00
2022-09-30T04:08:53.904Z,100.00
2022-09-30T04:11:22.562Z,100.00
2022-09-30T04:13:50.756Z,100.00
2022-09-30T04:16:20.208Z,100.00
2022-09-30T04:18:48.703Z,100.00
2022-09-30T04:21:17.350Z,100.00
2022-09-30T04:23:45.928Z,100.00
2022-09-30T04:26:17.839Z,100.00
2022-09-30T04:28:46.328Z,100.00
2022-09-30T04:31:17.743Z,100.00
2022-09-30T04:33:46.367Z,100.00
2022-09-30T04:36:14.922Z,100.00
2022-09-30T04:38:43.883Z,100.00
2022-09-30T04:41:17.985Z,100.00
2022-09-30T04:43:47.904Z,100.00
2022-09-30T04:46:17.049Z,100.00
2022-09-30T04:48:46.637Z,100.00
2022-09-30T04:51:15.432Z,100.00
2022-09-30T04:53:44.422Z,100.00
2022-09-30T04:56:13.275Z,100.00
2022-09-30T04:58:43.129Z,100.00
2022-09-30T05:01:14.595Z,100.00
2022-09-30T05:03:43.947Z,100.00
2022-09-30T05:06:13.134Z,100.00
2022-09-30T05:08:45.745Z,100.00
2022-09-30T05:11:18.479Z,100.00
2022-09-30T05:13:49.297Z,100.00
2022-09-30T05:16:18.357Z,100.00
2022-09-30T05:18:47.285Z,100.00
2022-09-30T05:21:19.551Z,100.00
2022-09-30T05:23:48.644Z,100.00
2022-09-30T05:26:17.456Z,100.00
2022-09-30T05:28:47.312Z,100.00
2022-09-30T05:31:15.797Z,100.00
2022-09-30T05:33:45.253Z,100.00
2022-09-30T05:36:16.859Z,100.00
2022-09-30T05:38:45.429Z,100.00
2022-09-30T05:41:15.672Z,100.00
2022-09-30T05:43:47.677Z,100.00
2022-09-30T05:46:19.312Z,100.00
2022-09-30T05:48:48.425Z,100.00
2022-09-30T05:51:16.838Z,100.00
2022-09-30T05:53:45.530Z,100.00
2022-09-30T05:56:15.148Z,100.00
2022-09-30T05:58:43.831Z,100.00
2022-09-30T06:01:14.747Z,100.00
2022-09-30T06:03:46.507Z,100.00
2022-09-30T06:06:15.319Z,100.00
2022-09-30T06:08:44.857Z,100.00
2022-09-30T06:11:15.721Z,100.00
2022-09-30T06:13:46.132Z,100.00
2022-09-30T06:16:15.487Z,100.00
2022-09-30T06:18:46.189Z,100.00
2022-09-30T06:21:17.624Z,100.00
2022-09-30T06:23:46.550Z,100.00
2022-09-30T06:26:15.859Z,100.00
2022-09-30T06:28:44.623Z,100.00
2022-09-30T06:31:13.636Z,100.00
2022-09-30T06:33:42.781Z,100.00
2022-09-30T06:36:12.730Z,100.00
2022-09-30T06:38:41.390Z,100.00
2022-09-30T06:41:10.419Z,100.00
2022-09-30T06:43:42.751Z,100.00
2022-09-30T06:46:29.762Z,100.00
2022-09-30T06:49:11.670Z,100.00
2022-09-30T06:51:42.601Z,100.00
2022-09-30T06:54:11.826Z,100.00
2022-09-30T06:56:40.441Z,100.00
2022-09-30T06:59:08.981Z,100.00
2022-09-30T07:01:37.485Z,100.00
2022-09-30T07:04:09.778Z,100.00
2022-09-30T07:06:39.326Z,100.00
2022-09-30T07:09:10.692Z,100.00
2022-09-30T07:11:39.958Z,100.00
2022-09-30T07:14:10.376Z,100.00
2022-09-30T07:16:39.041Z,100.00
2022-09-30T07:19:10.189Z,100.00
2022-09-30T07:21:38.531Z,100.00
2022-09-30T07:24:09.215Z,100.00
2022-09-30T07:26:37.517Z,100.00
2022-09-30T07:29:07.234Z,100.00
2022-09-30T07:31:36.189Z,100.00
2022-09-30T07:34:08.561Z,100.00
2022-09-30T07:36:38.855Z,100.00
2022-09-30T07:39:11.956Z,100.00
2022-09-30T07:41:41.587Z,100.00
2022-09-30T07:44:14.804Z,100.00
2022-09-30T07:46:45.223Z,100.00
2022-09-30T07:49:19.572Z,100.00
2022-09-30T07:51:48.585Z,100.00
2022-09-30T07:54:22.517Z,100.00
2022-09-30T07:57:09.151Z,100.00
2022-09-30T07:59:42.491Z,100.00
2022-09-30T08:02:16.517Z,100.00
2022-09-30T08:04:46.003Z,100.00
2022-09-30T08:07:17.284Z,100.00
2022-09-30T08:09:47.215Z,100.00
2022-09-30T08:12:15.662Z,100.00
2022-09-30T08:14:44.754Z,100.00
2022-09-30T08:17:13.576Z,100.00
2022-09-30T08:19:44.644Z,100.00
2022-09-30T08:22:14.231Z,100.00
2022-09-30T08:24:43.064Z,100.00
2022-09-30T08:27:12.629Z,100.00
2022-09-30T08:29:58.375Z,100.00
2022-09-30T08:32:31.976Z,100.00
2022-09-30T08:35:00.409Z,100.00
2022-09-30T08:37:30.067Z,100.00
2022-09-30T08:39:58.352Z,100.00
2022-09-30T08:42:54.023Z,100.00
2022-09-30T08:45:38.347Z,100.00
2022-09-30T08:48:36.333Z,100.00
2022-09-30T08:51:25.002Z,100.00
2022-09-30T08:53:55.967Z,100.00
2022-09-30T08:56:28.415Z,100.00
2022-09-30T08:59:02.663Z,100.00
2022-09-30T09:01:36.471Z,100.00
2022-09-30T09:04:07.662Z,100.00
2022-09-30T09:06:50.335Z,100.00
2022-09-30T09:09:44.518Z,100.00
2022-09-30T09:12:29.665Z,100.00
2022-09-30T09:15:31.459Z,100.00
2022-09-30T09:18:31.280Z,100.00
2022-09-30T09:21:04.195Z,100.00
2022-09-30T09:23:35.049Z,100.00
2022-09-30T09:26:04.863Z,100.00
2022-09-30T09:28:38.599Z,100.00
2022-09-30T09:31:18.103Z,100.00
2022-09-30T09:33:47.154Z,100.00
2022-09-30T09:36:37.182Z,100.00
2022-09-30T09:39:24.438Z,100.00
2022-09-30T09:42:03.934Z,100.00
2022-09-30T09:44:36.820Z,100.00
2022-09-30T09:47:15.389Z,100.00
2022-09-30T09:49:45.169Z,100.00
2022-09-30T09:52:40.055Z,100.00
2022-09-30T09:55:12.116Z,100.00
2022-09-30T09:57:41.558Z,100.00
2022-09-30T10:00:28.883Z,100.00
2022-09-30T10:03:06.181Z,100.00
2022-09-30T10:05:39.600Z,100.00
2022-09-30T10:08:16.612Z,100.00
2022-09-30T10:10:51.806Z,100.00
2022-09-30T10:13:24.375Z,100.00
2022-09-30T10:15:54.362Z,100.00
2022-09-30T10:18:28.113Z,100.00
2022-09-30T10:20:59.915Z,100.00
2022-09-30T10:23:32.321Z,100.00
2022-09-30T10:26:18.004Z,100.00
2022-09-30T10:28:50.158Z,100.00
2022-09-30T10:31:25.331Z,100.00
2022-09-30T10:34:04.219Z,100.00
2022-09-30T10:36:36.515Z,100.00
2022-09-30T10:39:09.453Z,100.00
2022-09-30T10:41:40.070Z,100.00
2022-09-30T10:44:16.718Z,100.00
2022-09-30T10:46:49.354Z,100.00
2022-09-30T10:49:29.893Z,100.00
2022-09-30T10:51:59.881Z,100.00
2022-09-30T10:54:48.062Z,100.00
2022-09-30T10:57:22.419Z,100.00
2022-09-30T10:59:53.637Z,100.00
2022-09-30T11:02:31.953Z,100.00
2022-09-30T11:05:14.726Z,100.00
2022-09-30T11:07:47.425Z,100.00
2022-09-30T11:10:37.914Z,100.00
2022-09-30T11:13:13.504Z,100.00
2022-09-30T11:15:51.908Z,100.00
2022-09-30T11:18:26.658Z,100.00
2022-09-30T11:21:03.456Z,100.00
2022-09-30T11:23:39.002Z,100.00
2022-09-30T11:26:16.813Z,100.00
2022-09-30T11:29:11.046Z,100.00
2022-09-30T11:31:48.986Z,100.00
2022-09-30T11:34:41.536Z,100.00
2022-09-30T11:37:20.496Z,100.00
2022-09-30T11:40:30.678Z,100.00
2022-09-30T11:43:14.178Z,100.00
2022-09-30T11:46:18.890Z,100.00
2022-09-30T11:49:06.960Z,100.00
2022-09-30T11:51:45.044Z,100.00
2022-09-30T11:54:35.281Z,100.00
2022-09-30T11:57:12.311Z,100.00
2022-09-30T11:59:46.195Z,100.00
2022-09-30T12:02:37.970Z,100.00
2022-09-30T12:05:15.442Z,100.00
2022-09-30T12:07:48.506Z,100.00
2022-09-30T12:10:24.082Z,100.00
2022-09-30T12:13:00.100Z,100.00
2022-09-30T12:15:29.880Z,100.00
2022-09-30T12:18:04.305Z,100.00
2022-09-30T12:20:39.644Z,100.00
2022-09-30T12:23:20.279Z,100.00
2022-09-30T12:25:57.234Z,100.00
2022-09-30T12:28:51.603Z,100.00
2022-09-30T12:32:09.788Z,100.00
2022-09-30T12:35:02.124Z,100.00
2022-09-30T12:37:50.030Z,96.73
2022-09-30T12:40:41.469Z,98.42
2022-09-30T12:43:39.025Z,97.46
2022-09-30T12:46:22.821Z,96.31
2022-09-30T12:48:56.842Z,100.00
2022-09-30T12:51:31.772Z,100.00
2022-09-30T12:54:06.257Z,94.89
2022-09-30T12:56:37.718Z,99.54
2022-09-30T12:59:09.891Z,98.68
2022-09-30T13:01:40.566Z,100.00
2022-09-30T13:04:31.781Z,97.70
2022-09-30T13:07:19.570Z,94.55
2022-09-30T13:10:34.333Z,98.87
2022-09-30T13:13:24.846Z,98.06
2022-09-30T13:16:03.156Z,97.53
2022-09-30T13:19:00.928Z,96.49
2022-09-30T13:21:32.141Z,100.00
2022-09-30T13:24:01.829Z,98.58
2022-09-30T13:26:51.183Z,100.00
2022-09-30T13:29:49.788Z,96.02
2022-09-30T13:32:38.575Z,92.54
2022-09-30T13:35:35.314Z,93.72
2022-09-30T13:38:21.710Z,91.24
2022-09-30T13:41:02.250Z,91.33
2022-09-30T13:43:39.657Z,98.30
2022-09-30T13:46:14.491Z,92.03
2022-09-30T13:48:52.925Z,95.00
2022-09-30T13:51:26.381Z,97.71
2022-09-30T13:53:59.446Z,94.32
2022-09-30T13:56:33.508Z,89.58
2022-09-30T13:59:49.127Z,90.96
2022-09-30T14:02:54.329Z,90.69
2022-09-30T14:05:55.570Z,88.19
2022-09-30T14:08:57.425Z,90.87
2022-09-30T14:11:48.777Z,90.10
2022-09-30T14:14:49.831Z,88.37
2022-09-30T14:17:47.208Z,97.15
2022-09-30T14:20:52.654Z,98.55
2022-09-30T14:23:21.566Z,97.32
2022-09-30T14:25:58.164Z,96.01
2022-09-30T14:28:36.782Z,99.10
2022-09-30T14:31:13.665Z,93.01
2022-09-30T14:33:45.304Z,96.76
2022-09-30T14:36:18.998Z,97.17
2022-09-30T14:38:52.470Z,94.92
2022-09-30T14:41:24.491Z,93.87
2022-09-30T14:43:58.798Z,89.22
2022-09-30T14:46:34.542Z,89.93
2022-09-30T14:49:09.551Z,85.96
2022-09-30T14:51:44.115Z,88.31
2022-09-30T14:54:21.768Z,91.16
2022-09-30T14:56:53.227Z,90.82
2022-09-30T14:59:26.957Z,95.58
2022-09-30T15:02:00.582Z,87.28
2022-09-30T15:04:32.561Z,91.15
2022-09-30T15:07:07.188Z,92.92
2022-09-30T15:09:37.853Z,92.59
2022-09-30T15:12:08.625Z,84.93
2022-09-30T15:14:48.514Z,86.52
2022-09-30T15:17:20.954Z,87.55
2022-09-30T15:19:50.337Z,88.04
2022-09-30T15:22:22.232Z,88.03
2022-09-30T15:24:52.278Z,89.81
2022-09-30T15:27:25.204Z,92.87
2022-09-30T15:29:57.146Z,88.11
2022-09-30T15:32:27.762Z,93.16
2022-09-30T15:34:58.631Z,96.91
2022-09-30T15:37:33.640Z,92.55
2022-09-30T15:40:26.746Z,93.86
2022-09-30T15:42:59.579Z,96.53
2022-09-30T15:45:35.816Z,93.41
2022-09-30T15:48:08.294Z,97.20
2022-09-30T15:50:41.831Z,96.70
2022-09-30T15:53:25.181Z,96.52
2022-09-30T15:55:55.927Z,95.47
2022-09-30T15:58:38.679Z,96.59
2022-09-30T16:01:16.531Z,98.56
2022-09-30T16:03:54.250Z,100.00
2022-09-30T16:06:32.640Z,100.00
2022-09-30T16:09:08.689Z,100.00
2022-09-30T16:11:42.042Z,99.62
2022-09-30T16:14:19.655Z,100.00
2022-09-30T16:16:53.758Z,100.00
2022-09-30T16:19:24.723Z,100.00
2022-09-30T16:21:54.803Z,100.00
2022-09-30T16:24:48.461Z,99.07
2022-09-30T16:27:31.223Z,100.00
2022-09-30T16:30:00.774Z,100.00
2022-09-30T16:32:34.681Z,100.00
2022-09-30T16:35:02.988Z,100.00
2022-09-30T16:37:31.552Z,100.00
2022-09-30T16:40:16.525Z,100.00
2022-09-30T16:42:44.881Z,100.00
2022-09-30T16:45:15.008Z,100.00
2022-09-30T16:47:44.431Z,100.00
2022-09-30T16:50:24.357Z,100.00
2022-09-30T16:52:52.831Z,100.00
2022-09-30T16:55:22.465Z,100.00
2022-09-30T16:57:51.059Z,100.00
2022-09-30T17:00:19.546Z,100.00
2022-09-30T17:02:50.240Z,100.00
2022-09-30T17:05:22.179Z,100.00
2022-09-30T17:07:54.526Z,100.00
2022-09-30T17:10:28.952Z,100.00
2022-09-30T17:13:00.196Z,100.00
2022-09-30T17:15:30.448Z,100.00
2022-09-30T17:17:59.144Z,100.00
2022-09-30T17:20:28.763Z,100.00
2022-09-30T17:22:57.061Z,100.00
2022-09-30T17:25:27.055Z,100.00
2022-09-30T17:27:55.258Z,100.00
2022-09-30T17:30:24.009Z,100.00
2022-09-30T17:32:54.453Z,100.00
2022-09-30T17:35:23.240Z,100.00
2022-09-30T17:37:52.211Z,100.00
2022-09-30T17:40:38.392Z,100.00
2022-09-30T17:43:10.985Z,100.00
2022-09-30T17:45:42.062Z,100.00
2022-09-30T17:48:12.094Z,100.00
2022-09-30T17:50:44.165Z,100.00
2022-09-30T17:53:14.149Z,100.00
2022-09-30T17:55:43.564Z,100.00
2022-09-30T17:58:13.504Z,100.00
2022-09-30T18:00:42.372Z,100.00
2022-09-30T18:03:11.132Z,100.00
2022-09-30T18:05:39.820Z,100.00
2022-09-30T18:08:08.019Z,100.00
2022-09-30T18:10:38.800Z,100.00
2022-09-30T18:13:07.940Z,100.00
2022-09-30T18:15:40.366Z,100.00
2022-09-30T18:18:09.013Z,100.00
2022-09-30T18:20:37.470Z,100.00
2022-09-30T18:23:05.836Z,100.00
2022-09-30T18:25:34.762Z,100.00
2022-09-30T18:28:03.697Z,100.00
2022-09-30T18:30:31.989Z,100.00
2022-09-30T18:33:01.973Z,100.00
2022-09-30T18:35:31.576Z,100.00
2022-09-30T18:38:00.149Z,100.00
2022-09-30T18:40:31.714Z,100.00
2022-09-30T18:43:02.573Z,100.00
2022-09-30T18:45:34.558Z,100.00
2022-09-30T18:48:04.555Z,100.00
2022-09-30T18:50:34.504Z,100.00
2022-09-30T18:53:09.119Z,100.00
2022-09-30T18:55:39.095Z,100.00
2022-09-30T18:58:07.714Z,100.00
2022-09-30T19:00:37.706Z,100.00
2022-09-30T19:03:10.344Z,100.00
2022-09-30T19:05:38.793Z,100.00
2022-09-30T19:08:07.315Z,100.00
2022-09-30T19:10:35.641Z,100.00
2022-09-30T19:13:04.034Z,100.00
2022-09-30T19:15:32.328Z,100.00
2022-09-30T19:18:00.654Z,100.00
2022-09-30T19:20:31.284Z,100.00
2022-09-30T19:23:00.223Z,100.00
2022-09-30T19:25:28.845Z,100.00
2022-09-30T19:27:57.120Z,100.00
2022-09-30T19:30:25.580Z,100.00
2022-09-30T19:32:59.104Z,100.00
2022-09-30T19:35:39.058Z,100.00
2022-09-30T19:38:09.256Z,100.00
2022-09-30T19:40:37.852Z,100.00
2022-09-30T19:43:06.880Z,100.00
2022-09-30T19:45:35.447Z,100.00
2022-09-30T19:48:04.084Z,100.00
2022-09-30T19:50:34.868Z,100.00
2022-09-30T19:53:03.050Z,100.00
2022-09-30T19:55:42.182Z,100.00
2022-09-30T19:58:14.109Z,100.00
2022-09-30T20:00:43.024Z,100.00
2022-09-30T20:03:12.917Z,100.00
2022-09-30T20:05:43.927Z,100.00
2022-09-30T20:08:12.633Z,100.00
2022-09-30T20:10:41.141Z,100.00
2022-09-30T20:13:09.458Z,100.00
2022-09-30T20:15:53.873Z,100.00
2022-09-30T20:18:22.424Z,100.00
2022-09-30T20:20:53.455Z,100.00
2022-09-30T20:23:23.190Z,100.00
2022-09-30T20:25:52.745Z,100.00
2022-09-30T20:28:22.313Z,100.00
2022-09-30T20:30:51.135Z,100.00
2022-09-30T20:33:21.721Z,100.00
2022-09-30T20:35:51.697Z,100.00
2022-09-30T20:38:25.110Z,100.00
2022-09-30T20:40:57.422Z,100.00
2022-09-30T20:43:26.752Z,100.00
2022-09-30T20:45:55.563Z,100.00
2022-09-30T20:48:23.861Z,100.00
2022-09-30T20:50:53.847Z,100.00
2022-09-30T20:53:24.075Z,100.00
2022-09-30T20:55:53.237Z,100.00
2022-09-30T20:58:21.955Z,100.00
2022-09-30T21:00:51.291Z,100.00
2022-09-30T21:03:19.811Z,100.00
2022-09-30T21:05:54.777Z,100.00
2022-09-30T21:08:23.136Z,100.00
2022-09-30T21:10:51.627Z,100.00
2022-09-30T21:13:20.002Z,100.00
2022-09-30T21:15:48.621Z,100.00
2022-09-30T21:18:16.963Z,100.00
2022-09-30T21:20:45.810Z,100.00
2022-09-30T21:23:19.088Z,100.00
2022-09-30T21:25:49.040Z,100.00
2022-09-30T21:28:17.243Z,100.00
2022-09-30T21:30:45.547Z,100.00
2022-09-30T21:33:13.792Z,100.00
2022-09-30T21:35:42.145Z,100.00
2022-09-30T21:38:10.325Z,100.00
2022-09-30T21:40:40.218Z,100.00
2022-09-30T21:43:08.913Z,100.00
2022-09-30T21:45:37.421Z,100.00
2022-09-30T21:48:10.268Z,100.00
2022-09-30T21:50:39.044Z,100.00
2022-09-30T21:53:07.748Z,100.00
2022-09-30T21:55:36.050Z,100.00
2022-09-30T21:58:06.051Z,100.00
2022-09-30T22:00:34.438Z,100.00
2022-09-30T22:03:02.653Z,100.00
2022-09-30T22:05:30.854Z,100.00
2022-09-30T22:08:01.612Z,100.00
2022-09-30T22:10:30.252Z,100.00
2022-09-30T22:12:58.444Z,100.00
2022-09-30T22:15:28.704Z,100.00
2022-09-30T22:17:56.942Z,100.00
2022-09-30T22:20:25.168Z,100.00
2022-09-30T22:22:53.553Z,100.00
2022-09-30T22:25:24.138Z,100.00
2022-09-30T22:27:52.678Z,100.00
2022-09-30T22:30:21.096Z,100.00
2022-09-30T22:33:11.060Z,100.00
2022-09-30T22:36:05.465Z,100.00
2022-09-30T22:38:33.807Z,100.00
2022-09-30T22:41:02.881Z,100.00
2022-09-30T22:43:33.184Z,100.00
2022-09-30T22:46:06.184Z,100.00
2022-09-30T22:48:36.938Z,100.00
2022-09-30T22:51:06.051Z,100.00
2022-09-30T22:53:35.708Z,100.00
2022-09-30T22:56:06.013Z,100.00
2022-09-30T22:58:37.168Z,100.00
2022-09-30T23:01:06.348Z,100.00
2022-09-30T23:03:36.383Z,100.00
2022-09-30T23:06:06.051Z,100.00
2022-09-30T23:08:41.669Z,100.00
2022-09-30T23:11:11.960Z,100.00
2022-09-30T23:13:41.787Z,100.00
2022-09-30T23:16:11.756Z,100.00
2022-09-30T23:18:41.443Z,100.00
2022-09-30T23:21:14.081Z,100.00
2022-09-30T23:23:42.616Z,100.00
2022-09-30T23:26:14.799Z,100.00
2022-09-30T23:28:44.020Z,100.00
2022-09-30T23:31:14.777Z,100.00
2022-09-30T23:33:51.873Z,100.00
2022-09-30T23:36:29.407Z,100.00
2022-09-30T23:39:02.902Z,100.00
2022-09-30T23:41:32.129Z,100.00
2022-09-30T23:44:01.112Z,100.00
2022-09-30T23:46:29.390Z,100.00
2022-09-30T23:48:59.614Z,100.00
2022-09-30T23:51:28.092Z,100.00
2022-09-30T23:53:56.311Z,100.00
2022-09-30T23:56:24.539Z,100.00
2022-09-30T23:58:52.985Z,100.00
